createdAt,value
2018-07-02T00:01:47.553Z,1.53
2018-07-02T00:06:01.085Z,1.77
2018-07-02T00:10:04.044Z,0.80
2018-07-02T00:14:06.447Z,2.47
2018-07-02T00:18:09.146Z,1.47
2018-07-02T00:22:12.993Z,1.53
2018-07-02T00:26:15.436Z,1.30
2018-07-02T00:30:17.591Z,1.53
2018-07-02T00:34:19.735Z,1.33
2018-07-02T00:38:21.854Z,1.83
2018-07-02T00:42:24.002Z,1.23
2018-07-02T00:46:26.154Z,0.97
2018-07-02T00:50:29.261Z,1.30
2018-07-02T00:54:31.421Z,1.40
2018-07-02T00:58:33.572Z,2.93
2018-07-02T01:02:35.675Z,1.67
2018-07-02T01:06:37.823Z,2.93
2018-07-02T01:10:39.979Z,2.23
2018-07-02T01:14:42.139Z,1.27
2018-07-02T01:18:44.559Z,0.70
2018-07-02T01:22:47.336Z,1.03
2018-07-02T01:26:49.484Z,2.27
2018-07-02T01:30:51.671Z,2.60
2018-07-02T01:34:53.791Z,2.70
2018-07-02T01:38:55.958Z,2.57
2018-07-02T01:42:58.083Z,1.07
2018-07-02T01:47:00.222Z,1.50
2018-07-02T01:51:02.399Z,2.60
2018-07-02T01:55:04.590Z,3.77
2018-07-02T01:59:06.733Z,5.37
2018-07-02T02:03:08.878Z,1.80
2018-07-02T02:07:11.032Z,1.20
2018-07-02T02:11:13.933Z,1.20
2018-07-02T02:15:16.187Z,1.30
2018-07-02T02:19:18.327Z,2.93
2018-07-02T02:23:20.455Z,1.40
2018-07-02T02:27:22.606Z,1.70
2018-07-02T02:31:24.825Z,1.53
2018-07-02T02:35:26.999Z,1.27
2018-07-02T02:39:29.124Z,3.37
2018-07-02T02:43:31.234Z,1.60
2018-07-02T02:47:33.383Z,1.67
2018-07-02T02:51:35.533Z,3.33
2018-07-02T02:55:37.757Z,1.50
2018-07-02T02:59:40.770Z,1.40
2018-07-02T03:03:43.990Z,1.30
2018-07-02T03:07:46.492Z,5.00
2018-07-02T03:11:48.611Z,2.03
2018-07-02T03:15:50.755Z,3.83
2018-07-02T03:19:52.890Z,3.80
2018-07-02T03:23:55.945Z,1.43
2018-07-02T03:27:58.079Z,2.87
2018-07-02T03:32:00.230Z,4.77
2018-07-02T03:36:02.583Z,1.50
2018-07-02T03:40:04.723Z,6.23
2018-07-02T03:44:07.218Z,5.93
2018-07-02T03:48:09.364Z,2.03
2018-07-02T03:52:11.541Z,3.10
2018-07-02T03:56:13.988Z,1.87
2018-07-02T04:00:16.124Z,2.40
2018-07-02T04:04:18.266Z,1.93
2018-07-02T04:08:20.402Z,3.07
2018-07-02T04:12:22.551Z,3.80
2018-07-02T04:16:24.699Z,2.57
2018-07-02T04:20:26.871Z,3.83
2018-07-02T04:24:29.101Z,1.80
2018-07-02T04:28:31.268Z,1.97
2018-07-02T04:32:33.477Z,3.47
2018-07-02T04:36:35.691Z,1.93
2018-07-02T04:40:37.860Z,10.90
2018-07-02T04:44:40.000Z,2.20
2018-07-02T04:48:42.159Z,2.17
2018-07-02T04:52:44.315Z,2.00
2018-07-02T04:56:47.030Z,4.00
2018-07-02T05:00:49.264Z,1.70
2018-07-02T05:04:51.465Z,25.33
2018-07-02T05:08:53.631Z,2.57
2018-07-02T05:12:56.179Z,2.73
2018-07-02T05:16:58.921Z,3.10
2018-07-02T05:21:01.046Z,7.17
2018-07-02T05:25:03.603Z,0.90
2018-07-02T05:29:05.767Z,0.80
2018-07-02T05:33:07.959Z,4.07
2018-07-02T05:37:10.180Z,16.47
2018-07-02T05:41:12.340Z,1.37
2018-07-02T05:45:14.497Z,2.47
2018-07-02T05:49:16.663Z,1.87
2018-07-02T05:53:18.843Z,4.57
2018-07-02T05:57:21.039Z,0.70
2018-07-02T06:01:23.218Z,2.00
2018-07-02T06:05:25.494Z,1.47
2018-07-02T06:09:27.694Z,3.53
2018-07-02T06:13:29.876Z,2.03
2018-07-02T06:17:32.464Z,0.90
2018-07-02T06:21:35.011Z,0.57
2018-07-02T06:25:37.509Z,1.77
2018-07-02T06:29:39.968Z,1.50
2018-07-02T06:33:42.336Z,1.80
2018-07-02T06:37:44.885Z,4.33
2018-07-02T06:41:47.417Z,1.90
2018-07-02T06:45:49.982Z,0.83
2018-07-02T06:49:52.568Z,0.70
2018-07-02T06:53:55.155Z,4.17
2018-07-02T06:57:57.669Z,3.70
2018-07-02T07:02:00.159Z,3.03
2018-07-02T07:06:02.556Z,1.10
2018-07-02T07:10:04.964Z,0.77
2018-07-02T07:14:08.163Z,3.13
2018-07-02T07:18:10.761Z,1.97
2018-07-02T07:22:13.324Z,1.73
2018-07-02T07:26:15.829Z,1.07
2018-07-02T07:30:18.333Z,3.73
2018-07-02T07:34:20.532Z,3.67
2018-07-02T07:38:22.707Z,1.73
2018-07-02T07:42:24.867Z,4.43
2018-07-02T07:46:27.063Z,0.97
2018-07-02T07:50:29.240Z,2.40
2018-07-02T07:54:31.722Z,1.23
2018-07-02T07:58:34.441Z,0.60
2018-07-02T08:02:36.965Z,2.33
2018-07-02T08:06:39.513Z,0.80
2018-07-02T08:10:41.929Z,2.10
2018-07-02T08:14:44.204Z,0.80
2018-07-02T08:18:46.799Z,2.73
2018-07-02T08:22:49.013Z,0.87
2018-07-02T08:26:51.191Z,3.87
2018-07-02T08:30:53.740Z,3.17
2018-07-02T08:34:55.917Z,3.27
2018-07-02T08:38:58.179Z,0.63
2018-07-02T08:43:00.583Z,2.73
2018-07-02T08:47:02.989Z,2.17
2018-07-02T08:51:05.942Z,2.40
2018-07-02T08:55:08.127Z,0.83
2018-07-02T08:59:10.877Z,3.03
2018-07-02T09:03:13.375Z,1.80
2018-07-02T09:07:15.676Z,3.87
2018-07-02T09:11:18.075Z,2.73
2018-07-02T09:15:20.483Z,1.20
2018-07-02T09:19:23.020Z,2.20
2018-07-02T09:23:25.247Z,1.20
2018-07-02T09:27:27.919Z,1.90
2018-07-02T09:31:30.080Z,2.17
2018-07-02T09:35:32.518Z,0.70
2018-07-02T09:39:35.007Z,2.47
2018-07-02T09:43:37.106Z,0.73
2018-07-02T09:47:39.683Z,4.00
2018-07-02T09:51:41.952Z,1.77
2018-07-02T09:55:44.206Z,1.10
2018-07-02T09:59:46.385Z,1.33
2018-07-02T10:03:48.570Z,0.87
2018-07-02T10:07:51.095Z,1.73
2018-07-02T10:11:53.395Z,0.53
2018-07-02T10:15:55.540Z,2.63
2018-07-02T10:19:58.012Z,0.80
2018-07-02T10:24:00.243Z,0.97
2018-07-02T10:28:02.501Z,1.83
2018-07-02T10:32:04.754Z,3.40
2018-07-02T10:36:06.915Z,1.37
2018-07-02T10:40:09.292Z,1.10
2018-07-02T10:44:11.643Z,0.73
2018-07-02T10:48:13.865Z,0.80
2018-07-02T10:52:16.179Z,0.70
2018-07-02T10:56:18.409Z,2.83
2018-07-02T11:00:20.966Z,1.27
2018-07-02T11:04:23.191Z,1.70
2018-07-02T11:08:25.531Z,2.60
2018-07-02T11:12:28.102Z,2.30
2018-07-02T11:16:30.612Z,0.70
2018-07-02T11:20:33.254Z,0.93
2018-07-02T11:24:35.739Z,1.90
2018-07-02T11:28:38.188Z,1.50
2018-07-02T11:32:40.502Z,0.90
2018-07-02T11:36:42.810Z,0.80
2018-07-02T11:40:45.455Z,2.60
2018-07-02T11:44:47.755Z,4.43
2018-07-02T11:48:49.965Z,0.97
2018-07-02T11:52:52.252Z,6.07
2018-07-02T11:56:54.414Z,1.43
2018-07-02T12:00:57.034Z,2.67
2018-07-02T12:04:59.242Z,1.43
2018-07-02T12:09:01.603Z,0.77
2018-07-02T12:13:03.804Z,1.93
2018-07-02T12:17:05.988Z,23.33
2018-07-02T12:21:08.154Z,0.50
2018-07-02T12:25:10.308Z,0.70
2018-07-02T12:29:12.603Z,2.47
2018-07-02T12:33:14.820Z,1.47
2018-07-02T12:37:17.235Z,1.20
2018-07-02T12:41:19.694Z,0.57
2018-07-02T12:45:23.259Z,2.23
2018-07-02T12:49:25.573Z,1.80
2018-07-02T12:53:28.149Z,1.60
2018-07-02T12:57:30.748Z,1.00
2018-07-02T13:01:33.224Z,1.63
2018-07-02T13:05:36.063Z,1.10
2018-07-02T13:09:38.237Z,1.57
2018-07-02T13:13:40.499Z,2.57
2018-07-02T13:17:42.599Z,3.70
2018-07-02T13:21:44.877Z,2.00
2018-07-02T13:25:47.067Z,2.20
2018-07-02T13:29:49.215Z,0.70
2018-07-02T13:33:51.965Z,1.20
2018-07-02T13:37:54.322Z,0.87
2018-07-02T13:41:56.878Z,1.10
2018-07-02T13:45:59.000Z,6.53
2018-07-02T13:50:01.249Z,4.10
2018-07-02T13:54:03.580Z,1.40
2018-07-02T13:58:05.840Z,3.40
2018-07-02T14:02:08.028Z,2.83
2018-07-02T14:06:10.460Z,2.40
2018-07-02T14:10:13.075Z,0.67
2018-07-02T14:14:15.340Z,1.30
2018-07-02T14:18:17.523Z,2.60
2018-07-02T14:22:19.893Z,2.57
2018-07-02T14:26:22.064Z,1.17
2018-07-02T14:30:24.353Z,8.63
2018-07-02T14:34:26.578Z,2.83
2018-07-02T14:38:28.801Z,18.60
2018-07-02T14:42:31.631Z,2.57
2018-07-02T14:46:33.807Z,1.13
2018-07-02T14:50:36.084Z,0.90
2018-07-02T14:54:38.352Z,3.20
2018-07-02T14:58:40.526Z,1.30
2018-07-02T15:02:42.682Z,0.67
2018-07-02T15:06:45.607Z,2.87
2018-07-02T15:10:47.846Z,2.00
2018-07-02T15:14:50.039Z,3.10
2018-07-02T15:18:52.247Z,2.20
2018-07-02T15:22:55.496Z,1.07
2018-07-02T15:26:57.719Z,14.33
2018-07-02T15:30:59.967Z,2.47
2018-07-02T15:35:02.325Z,2.50
2018-07-02T15:39:06.968Z,1.37
2018-07-02T15:43:09.143Z,1.87
2018-07-02T15:47:11.987Z,2.60
2018-07-02T15:51:14.139Z,3.43
2018-07-02T15:55:16.310Z,2.00
2018-07-02T15:59:18.539Z,2.23
2018-07-02T16:03:21.620Z,1.37
2018-07-02T16:07:23.873Z,3.57
2018-07-02T16:11:26.080Z,1.50
2018-07-02T16:15:28.390Z,2.90
2018-07-02T16:19:30.719Z,1.30
2018-07-02T16:23:32.887Z,3.40
2018-07-02T16:27:35.267Z,0.60
2018-07-02T16:31:37.719Z,2.07
2018-07-02T16:35:40.044Z,3.37
2018-07-02T16:39:42.263Z,4.93
2018-07-02T16:43:44.459Z,3.27
2018-07-02T16:47:46.620Z,4.60
2018-07-02T16:51:48.785Z,1.10
2018-07-02T16:55:50.980Z,1.77
2018-07-02T16:59:53.262Z,1.40
2018-07-02T17:03:55.399Z,1.30
2018-07-02T17:07:58.088Z,3.13
2018-07-02T17:12:00.372Z,1.47
2018-07-02T17:16:02.638Z,4.07
2018-07-02T17:20:05.534Z,2.67
2018-07-02T17:24:07.704Z,2.40
2018-07-02T17:28:10.942Z,1.60
2018-07-02T17:32:14.696Z,2.40
2018-07-02T17:36:16.913Z,1.23
2018-07-02T17:40:19.086Z,0.70
2018-07-02T17:44:21.326Z,0.57
2018-07-02T17:48:23.824Z,2.00
2018-07-02T17:52:27.326Z,0.70
2018-07-02T17:56:29.614Z,1.03
2018-07-02T18:00:31.844Z,2.70
2018-07-02T18:04:34.042Z,4.07
2018-07-02T18:08:36.226Z,20.53
2018-07-02T18:12:38.531Z,2.60
2018-07-02T18:16:40.723Z,4.53
2018-07-02T18:20:42.990Z,1.47
2018-07-02T18:24:45.150Z,1.53
2018-07-02T18:28:47.994Z,1.37
2018-07-02T18:32:50.583Z,0.80
2018-07-02T18:36:53.095Z,1.63
2018-07-02T18:40:55.303Z,5.40
2018-07-02T18:44:57.462Z,3.60
2018-07-02T18:48:59.670Z,5.83
2018-07-02T18:53:01.825Z,41.70
2018-07-02T18:57:04.240Z,44.07
2018-07-02T19:01:07.571Z,83.50
2018-07-02T19:05:09.820Z,110.13
2018-07-02T19:09:12.048Z,43.63
2018-07-02T19:13:14.239Z,21.70
2018-07-02T19:17:16.832Z,7.77
2018-07-02T19:21:19.018Z,57.00
2018-07-02T19:25:22.518Z,119.43
2018-07-02T19:29:24.728Z,102.87
2018-07-02T19:33:26.948Z,40.57
2018-07-02T19:37:29.129Z,15.17
2018-07-02T19:41:31.296Z,30.77
2018-07-02T19:45:33.453Z,40.67
2018-07-02T19:49:36.303Z,26.13
2018-07-02T19:53:39.211Z,24.57
2018-07-02T19:57:42.106Z,23.97
2018-07-02T20:01:45.208Z,119.67
2018-07-02T20:05:47.757Z,100.60
2018-07-02T20:09:50.877Z,45.60
2018-07-02T20:13:53.230Z,84.43
2018-07-02T20:17:56.007Z,11.07
2018-07-02T20:21:58.260Z,9.73
2018-07-02T20:26:00.417Z,6.10
2018-07-02T20:30:02.976Z,4.47
2018-07-02T20:34:05.178Z,1.50
2018-07-02T20:38:07.436Z,3.07
2018-07-02T20:42:09.602Z,3.27
2018-07-02T20:46:11.806Z,2.67
2018-07-02T20:50:14.007Z,2.83
2018-07-02T20:54:16.501Z,2.87
2018-07-02T20:58:18.968Z,2.40
2018-07-02T21:02:21.199Z,2.50
2018-07-02T21:06:23.401Z,4.50
2018-07-02T21:10:25.619Z,9.50
2018-07-02T21:14:27.720Z,7.63
2018-07-02T21:18:29.876Z,6.23
2018-07-02T21:22:32.057Z,8.60
2018-07-02T21:26:34.220Z,5.67
2018-07-02T21:30:36.363Z,11.57
2018-07-02T21:34:39.298Z,3.07
2018-07-02T21:38:41.495Z,3.43
2018-07-02T21:42:43.716Z,5.20
2018-07-02T21:46:45.951Z,6.67
2018-07-02T21:50:48.103Z,3.73
2018-07-02T21:54:50.267Z,4.17
2018-07-02T21:58:53.307Z,2.23
2018-07-02T22:02:55.494Z,1.83
2018-07-02T22:06:57.655Z,1.60
2018-07-02T22:10:59.945Z,2.03
2018-07-02T22:15:01.984Z,6.93
2018-07-02T22:19:04.284Z,1.30
2018-07-02T22:23:06.594Z,4.17
2018-07-02T22:27:08.751Z,2.97
2018-07-02T22:31:10.949Z,2.10
2018-07-02T22:35:13.164Z,3.03
2018-07-02T22:39:15.347Z,3.57
2018-07-02T22:43:17.650Z,7.57
2018-07-02T22:47:19.851Z,2.40
2018-07-02T22:51:22.328Z,2.57
2018-07-02T22:55:24.632Z,4.70
2018-07-02T22:59:26.851Z,2.40
2018-07-02T23:03:29.019Z,5.63
2018-07-02T23:07:31.198Z,5.30
2018-07-02T23:11:33.336Z,3.77
2018-07-02T23:15:35.498Z,5.47
2018-07-02T23:19:37.680Z,5.63
2018-07-02T23:23:40.087Z,3.40
2018-07-02T23:27:43.298Z,2.60
2018-07-02T23:31:45.544Z,4.37
2018-07-02T23:35:47.968Z,3.33
2018-07-02T23:39:50.198Z,5.77
2018-07-02T23:43:52.453Z,3.53
2018-07-02T23:47:54.779Z,2.83
2018-07-02T23:51:57.937Z,2.10
2018-07-02T23:56:00.654Z,1.70
